sensor_id;sensor_type;location;lat;lon;timestamp;P1;durP1;ratioP1;P2;durP2;ratioP2
16514;SDS011;8370;52.556;7.970;2022-07-23T00:00:26;8.83;;;4.23;;
16514;SDS011;8370;52.556;7.970;2022-07-23T00:02:52;7.93;;;4.87;;
16514;SDS011;8370;52.556;7.970;2022-07-23T00:05:18;5.83;;;4.47;;
16514;SDS011;8370;52.556;7.970;2022-07-23T00:07:43;6.07;;;4.07;;
16514;SDS011;8370;52.556;7.970;2022-07-23T00:10:09;5.10;;;3.73;;
16514;SDS011;8370;52.556;7.970;2022-07-23T00:12:34;9.10;;;5.00;;
16514;SDS011;8370;52.556;7.970;2022-07-23T00:15:00;4.97;;;4.00;;
16514;SDS011;8370;52.556;7.970;2022-07-23T00:17:27;6.13;;;4.83;;
16514;SDS011;8370;52.556;7.970;2022-07-23T00:19:52;7.27;;;4.37;;
16514;SDS011;8370;52.556;7.970;2022-07-23T00:22:18;4.53;;;3.40;;
16514;SDS011;8370;52.556;7.970;2022-07-23T00:24:44;5.50;;;4.00;;
16514;SDS011;8370;52.556;7.970;2022-07-23T00:27:09;4.63;;;3.40;;
16514;SDS011;8370;52.556;7.970;2022-07-23T00:29:35;10.93;;;4.50;;
16514;SDS011;8370;52.556;7.970;2022-07-23T00:32:01;6.87;;;3.60;;
16514;SDS011;8370;52.556;7.970;2022-07-23T00:34:27;4.47;;;3.90;;
16514;SDS011;8370;52.556;7.970;2022-07-23T00:36:52;6.77;;;4.30;;
16514;SDS011;8370;52.556;7.970;2022-07-23T00:39:19;4.67;;;3.80;;
16514;SDS011;8370;52.556;7.970;2022-07-23T00:41:46;5.50;;;3.63;;
16514;SDS011;8370;52.556;7.970;2022-07-23T00:44:15;5.70;;;4.23;;
16514;SDS011;8370;52.556;7.970;2022-07-23T00:46:49;7.17;;;3.93;;
16514;SDS011;8370;52.556;7.970;2022-07-23T00:49:18;5.60;;;3.70;;
16514;SDS011;8370;52.556;7.970;2022-07-23T00:51:44;12.73;;;4.53;;
16514;SDS011;8370;52.556;7.970;2022-07-23T00:54:10;7.50;;;4.00;;
16514;SDS011;8370;52.556;7.970;2022-07-23T00:56:36;6.50;;;4.63;;
16514;SDS011;8370;52.556;7.970;2022-07-23T00:59:02;6.23;;;3.93;;
16514;SDS011;8370;52.556;7.970;2022-07-23T01:01:27;7.27;;;3.93;;
16514;SDS011;8370;52.556;7.970;2022-07-23T01:03:53;6.67;;;4.13;;
16514;SDS011;8370;52.556;7.970;2022-07-23T01:06:18;8.97;;;4.70;;
16514;SDS011;8370;52.556;7.970;2022-07-23T01:08:44;6.17;;;4.30;;
16514;SDS011;8370;52.556;7.970;2022-07-23T01:11:10;4.57;;;3.90;;
16514;SDS011;8370;52.556;7.970;2022-07-23T01:13:40;4.30;;;3.90;;
16514;SDS011;8370;52.556;7.970;2022-07-23T01:16:07;7.83;;;4.10;;
16514;SDS011;8370;52.556;7.970;2022-07-23T01:18:32;8.73;;;4.73;;
16514;SDS011;8370;52.556;7.970;2022-07-23T01:20:58;7.87;;;4.53;;
16514;SDS011;8370;52.556;7.970;2022-07-23T01:23:23;7.50;;;4.63;;
16514;SDS011;8370;52.556;7.970;2022-07-23T01:25:51;6.40;;;4.73;;
16514;SDS011;8370;52.556;7.970;2022-07-23T01:28:18;5.80;;;4.30;;
16514;SDS011;8370;52.556;7.970;2022-07-23T01:30:44;5.17;;;4.27;;
16514;SDS011;8370;52.556;7.970;2022-07-23T01:33:10;8.23;;;4.30;;
16514;SDS011;8370;52.556;7.970;2022-07-23T01:35:35;5.87;;;4.50;;
16514;SDS011;8370;52.556;7.970;2022-07-23T01:38:01;6.17;;;4.23;;
16514;SDS011;8370;52.556;7.970;2022-07-23T01:40:26;9.23;;;4.40;;
16514;SDS011;8370;52.556;7.970;2022-07-23T01:42:52;7.13;;;4.60;;
16514;SDS011;8370;52.556;7.970;2022-07-23T01:45:17;6.07;;;4.20;;
16514;SDS011;8370;52.556;7.970;2022-07-23T01:47:43;5.33;;;4.33;;
16514;SDS011;8370;52.556;7.970;2022-07-23T01:50:09;7.73;;;4.97;;
16514;SDS011;8370;52.556;7.970;2022-07-23T01:52:34;8.83;;;4.73;;
16514;SDS011;8370;52.556;7.970;2022-07-23T01:55:00;9.50;;;4.73;;
16514;SDS011;8370;52.556;7.970;2022-07-23T01:57:25;7.43;;;4.97;;
16514;SDS011;8370;52.556;7.970;2022-07-23T01:59:51;8.17;;;4.83;;
16514;SDS011;8370;52.556;7.970;2022-07-23T02:02:16;6.40;;;4.70;;
16514;SDS011;8370;52.556;7.970;2022-07-23T02:04:42;6.70;;;4.90;;
16514;SDS011;8370;52.556;7.970;2022-07-23T02:07:07;6.03;;;4.80;;
16514;SDS011;8370;52.556;7.970;2022-07-23T02:09:33;5.77;;;4.67;;
16514;SDS011;8370;52.556;7.970;2022-07-23T02:11:59;8.07;;;5.03;;
16514;SDS011;8370;52.556;7.970;2022-07-23T02:14:25;7.13;;;5.47;;
16514;SDS011;8370;52.556;7.970;2022-07-23T02:16:51;6.73;;;5.20;;
16514;SDS011;8370;52.556;7.970;2022-07-23T02:19:17;8.00;;;4.80;;
16514;SDS011;8370;52.556;7.970;2022-07-23T02:21:42;8.23;;;5.53;;
16514;SDS011;8370;52.556;7.970;2022-07-23T02:24:08;8.77;;;5.47;;
16514;SDS011;8370;52.556;7.970;2022-07-23T02:26:33;10.13;;;5.67;;
16514;SDS011;8370;52.556;7.970;2022-07-23T02:28:59;7.90;;;5.43;;
16514;SDS011;8370;52.556;7.970;2022-07-23T02:31:26;8.83;;;5.10;;
16514;SDS011;8370;52.556;7.970;2022-07-23T02:33:53;6.47;;;5.20;;
16514;SDS011;8370;52.556;7.970;2022-07-23T02:36:19;7.87;;;5.57;;
16514;SDS011;8370;52.556;7.970;2022-07-23T02:38:44;6.80;;;5.03;;
16514;SDS011;8370;52.556;7.970;2022-07-23T02:41:09;8.80;;;5.67;;
16514;SDS011;8370;52.556;7.970;2022-07-23T02:43:35;8.43;;;5.30;;
16514;SDS011;8370;52.556;7.970;2022-07-23T02:46:00;9.87;;;5.90;;
16514;SDS011;8370;52.556;7.970;2022-07-23T02:48:26;9.03;;;5.80;;
16514;SDS011;8370;52.556;7.970;2022-07-23T02:50:51;7.97;;;5.83;;
16514;SDS011;8370;52.556;7.970;2022-07-23T02:53:17;8.77;;;5.87;;
16514;SDS011;8370;52.556;7.970;2022-07-23T02:55:43;7.10;;;5.23;;
16514;SDS011;8370;52.556;7.970;2022-07-23T02:58:08;7.90;;;5.53;;
16514;SDS011;8370;52.556;7.970;2022-07-23T03:00:34;6.47;;;5.43;;
16514;SDS011;8370;52.556;7.970;2022-07-23T03:02:59;8.77;;;5.87;;
16514;SDS011;8370;52.556;7.970;2022-07-23T03:05:25;7.47;;;5.87;;
16514;SDS011;8370;52.556;7.970;2022-07-23T03:07:50;6.97;;;5.67;;
16514;SDS011;8370;52.556;7.970;2022-07-23T03:10:16;12.20;;;5.83;;
16514;SDS011;8370;52.556;7.970;2022-07-23T03:12:41;6.93;;;5.00;;
16514;SDS011;8370;52.556;7.970;2022-07-23T03:15:07;8.47;;;5.70;;
16514;SDS011;8370;52.556;7.970;2022-07-23T03:17:33;8.73;;;6.23;;
16514;SDS011;8370;52.556;7.970;2022-07-23T03:19:58;5.97;;;5.33;;
16514;SDS011;8370;52.556;7.970;2022-07-23T03:22:24;9.07;;;5.60;;
16514;SDS011;8370;52.556;7.970;2022-07-23T03:24:49;9.60;;;6.83;;
16514;SDS011;8370;52.556;7.970;2022-07-23T03:27:21;11.23;;;5.97;;
16514;SDS011;8370;52.556;7.970;2022-07-23T03:29:52;11.23;;;6.23;;
16514;SDS011;8370;52.556;7.970;2022-07-23T03:32:18;8.67;;;6.47;;
16514;SDS011;8370;52.556;7.970;2022-07-23T03:34:45;6.83;;;5.67;;
16514;SDS011;8370;52.556;7.970;2022-07-23T03:37:10;11.20;;;6.10;;
16514;SDS011;8370;52.556;7.970;2022-07-23T03:39:36;9.67;;;6.00;;
16514;SDS011;8370;52.556;7.970;2022-07-23T03:42:02;7.50;;;5.90;;
16514;SDS011;8370;52.556;7.970;2022-07-23T03:44:27;8.47;;;5.73;;
16514;SDS011;8370;52.556;7.970;2022-07-23T03:46:53;8.47;;;5.97;;
16514;SDS011;8370;52.556;7.970;2022-07-23T03:49:18;11.43;;;5.50;;
16514;SDS011;8370;52.556;7.970;2022-07-23T03:51:44;8.00;;;6.10;;
16514;SDS011;8370;52.556;7.970;2022-07-23T03:54:09;6.80;;;5.47;;
16514;SDS011;8370;52.556;7.970;2022-07-23T03:56:35;11.37;;;5.77;;
16514;SDS011;8370;52.556;7.970;2022-07-23T03:59:01;8.07;;;5.40;;
16514;SDS011;8370;52.556;7.970;2022-07-23T04:01:26;9.23;;;5.40;;
16514;SDS011;8370;52.556;7.970;2022-07-23T04:03:52;8.93;;;5.47;;
16514;SDS011;8370;52.556;7.970;2022-07-23T04:06:17;7.53;;;5.20;;
16514;SDS011;8370;52.556;7.970;2022-07-23T04:08:43;6.20;;;4.33;;
16514;SDS011;8370;52.556;7.970;2022-07-23T04:11:08;6.03;;;4.87;;
16514;SDS011;8370;52.556;7.970;2022-07-23T04:13:34;6.93;;;5.33;;
16514;SDS011;8370;52.556;7.970;2022-07-23T04:15:59;8.57;;;5.07;;
16514;SDS011;8370;52.556;7.970;2022-07-23T04:18:25;6.93;;;5.17;;
16514;SDS011;8370;52.556;7.970;2022-07-23T04:20:50;7.40;;;5.53;;
16514;SDS011;8370;52.556;7.970;2022-07-23T04:23:17;6.13;;;5.10;;
16514;SDS011;8370;52.556;7.970;2022-07-23T04:25:43;5.97;;;5.07;;
16514;SDS011;8370;52.556;7.970;2022-07-23T04:28:08;8.03;;;5.00;;
16514;SDS011;8370;52.556;7.970;2022-07-23T04:30:34;10.13;;;5.33;;
16514;SDS011;8370;52.556;7.970;2022-07-23T04:32:59;7.63;;;6.20;;
16514;SDS011;8370;52.556;7.970;2022-07-23T04:35:25;8.37;;;5.20;;
16514;SDS011;8370;52.556;7.970;2022-07-23T04:37:50;9.33;;;5.80;;
16514;SDS011;8370;52.556;7.970;2022-07-23T04:40:16;9.77;;;5.47;;
16514;SDS011;8370;52.556;7.970;2022-07-23T04:42:41;8.87;;;6.10;;
16514;SDS011;8370;52.556;7.970;2022-07-23T04:45:07;10.83;;;6.57;;
16514;SDS011;8370;52.556;7.970;2022-07-23T04:47:33;8.77;;;6.20;;
16514;SDS011;8370;52.556;7.970;2022-07-23T04:49:58;10.97;;;5.77;;
16514;SDS011;8370;52.556;7.970;2022-07-23T04:52:24;11.97;;;6.43;;
16514;SDS011;8370;52.556;7.970;2022-07-23T04:54:49;7.73;;;5.40;;
16514;SDS011;8370;52.556;7.970;2022-07-23T04:57:15;8.40;;;6.17;;
16514;SDS011;8370;52.556;7.970;2022-07-23T04:59:41;8.97;;;6.10;;
16514;SDS011;8370;52.556;7.970;2022-07-23T05:02:06;12.60;;;6.33;;
16514;SDS011;8370;52.556;7.970;2022-07-23T05:04:32;8.57;;;5.87;;
16514;SDS011;8370;52.556;7.970;2022-07-23T05:06:58;7.50;;;5.43;;
16514;SDS011;8370;52.556;7.970;2022-07-23T05:09:24;13.50;;;5.57;;
16514;SDS011;8370;52.556;7.970;2022-07-23T05:11:50;10.27;;;6.00;;
16514;SDS011;8370;52.556;7.970;2022-07-23T05:14:15;6.47;;;5.07;;
16514;SDS011;8370;52.556;7.970;2022-07-23T05:16:41;7.77;;;5.27;;
16514;SDS011;8370;52.556;7.970;2022-07-23T05:19:07;7.77;;;5.27;;
16514;SDS011;8370;52.556;7.970;2022-07-23T05:21:32;8.57;;;4.67;;
16514;SDS011;8370;52.556;7.970;2022-07-23T05:23:58;6.40;;;4.83;;
16514;SDS011;8370;52.556;7.970;2022-07-23T05:26:24;8.00;;;5.30;;
16514;SDS011;8370;52.556;7.970;2022-07-23T05:28:50;7.63;;;4.90;;
16514;SDS011;8370;52.556;7.970;2022-07-23T05:31:15;8.57;;;4.90;;
16514;SDS011;8370;52.556;7.970;2022-07-23T05:33:41;6.33;;;4.83;;
16514;SDS011;8370;52.556;7.970;2022-07-23T05:36:07;7.27;;;5.10;;
16514;SDS011;8370;52.556;7.970;2022-07-23T05:38:32;5.77;;;4.27;;
16514;SDS011;8370;52.556;7.970;2022-07-23T05:40:58;6.20;;;4.60;;
16514;SDS011;8370;52.556;7.970;2022-07-23T05:43:24;6.50;;;4.20;;
16514;SDS011;8370;52.556;7.970;2022-07-23T05:45:50;7.63;;;4.40;;
16514;SDS011;8370;52.556;7.970;2022-07-23T05:48:15;6.30;;;4.83;;
16514;SDS011;8370;52.556;7.970;2022-07-23T05:50:41;9.40;;;4.27;;
16514;SDS011;8370;52.556;7.970;2022-07-23T05:53:06;6.90;;;3.73;;
16514;SDS011;8370;52.556;7.970;2022-07-23T05:55:32;5.60;;;4.07;;
16514;SDS011;8370;52.556;7.970;2022-07-23T05:57:58;7.17;;;4.20;;
16514;SDS011;8370;52.556;7.970;2022-07-23T06:00:24;5.70;;;4.10;;
16514;SDS011;8370;52.556;7.970;2022-07-23T06:02:51;6.73;;;3.57;;
16514;SDS011;8370;52.556;7.970;2022-07-23T06:05:17;6.00;;;3.37;;
16514;SDS011;8370;52.556;7.970;2022-07-23T06:07:42;3.83;;;2.93;;
16514;SDS011;8370;52.556;7.970;2022-07-23T06:10:08;5.20;;;3.20;;
16514;SDS011;8370;52.556;7.970;2022-07-23T06:12:34;12.20;;;3.60;;
16514;SDS011;8370;52.556;7.970;2022-07-23T06:14:59;6.47;;;3.20;;
16514;SDS011;8370;52.556;7.970;2022-07-23T06:17:25;2.77;;;2.53;;
16514;SDS011;8370;52.556;7.970;2022-07-23T06:19:51;8.13;;;3.40;;
16514;SDS011;8370;52.556;7.970;2022-07-23T06:22:17;4.37;;;2.93;;
16514;SDS011;8370;52.556;7.970;2022-07-23T06:24:42;6.33;;;3.17;;
16514;SDS011;8370;52.556;7.970;2022-07-23T06:27:08;9.30;;;3.00;;
16514;SDS011;8370;52.556;7.970;2022-07-23T06:29:33;5.40;;;3.00;;
16514;SDS011;8370;52.556;7.970;2022-07-23T06:31:59;9.50;;;4.67;;
16514;SDS011;8370;52.556;7.970;2022-07-23T06:34:24;4.63;;;2.60;;
16514;SDS011;8370;52.556;7.970;2022-07-23T06:36:50;4.07;;;2.80;;
16514;SDS011;8370;52.556;7.970;2022-07-23T06:39:15;4.70;;;2.70;;
16514;SDS011;8370;52.556;7.970;2022-07-23T06:41:41;7.37;;;2.40;;
16514;SDS011;8370;52.556;7.970;2022-07-23T06:44:06;4.67;;;1.87;;
16514;SDS011;8370;52.556;7.970;2022-07-23T06:46:32;3.70;;;2.07;;
16514;SDS011;8370;52.556;7.970;2022-07-23T06:48:58;2.93;;;1.70;;
16514;SDS011;8370;52.556;7.970;2022-07-23T06:51:23;5.97;;;1.83;;
16514;SDS011;8370;52.556;7.970;2022-07-23T06:53:49;3.17;;;2.10;;
16514;SDS011;8370;52.556;7.970;2022-07-23T06:56:14;4.53;;;1.93;;
16514;SDS011;8370;52.556;7.970;2022-07-23T06:58:40;3.33;;;2.10;;
16514;SDS011;8370;52.556;7.970;2022-07-23T07:01:05;3.17;;;2.03;;
16514;SDS011;8370;52.556;7.970;2022-07-23T07:03:31;4.80;;;1.90;;
16514;SDS011;8370;52.556;7.970;2022-07-23T07:05:56;3.77;;;2.00;;
16514;SDS011;8370;52.556;7.970;2022-07-23T07:08:22;4.27;;;2.07;;
16514;SDS011;8370;52.556;7.970;2022-07-23T07:10:48;4.03;;;2.00;;
16514;SDS011;8370;52.556;7.970;2022-07-23T07:13:14;4.37;;;1.80;;
16514;SDS011;8370;52.556;7.970;2022-07-23T07:15:39;3.17;;;1.97;;
16514;SDS011;8370;52.556;7.970;2022-07-23T07:18:05;2.30;;;1.83;;
16514;SDS011;8370;52.556;7.970;2022-07-23T07:20:30;4.53;;;1.77;;
16514;SDS011;8370;52.556;7.970;2022-07-23T07:22:56;3.03;;;1.27;;
16514;SDS011;8370;52.556;7.970;2022-07-23T07:25:21;5.03;;;1.50;;
16514;SDS011;8370;52.556;7.970;2022-07-23T07:27:47;5.17;;;1.07;;
16514;SDS011;8370;52.556;7.970;2022-07-23T07:30:12;5.17;;;1.00;;
16514;SDS011;8370;52.556;7.970;2022-07-23T07:32:38;1.60;;;0.97;;
16514;SDS011;8370;52.556;7.970;2022-07-23T07:35:05;3.07;;;1.00;;
16514;SDS011;8370;52.556;7.970;2022-07-23T07:37:31;1.93;;;1.00;;
16514;SDS011;8370;52.556;7.970;2022-07-23T07:39:57;3.83;;;1.17;;
16514;SDS011;8370;52.556;7.970;2022-07-23T07:42:22;1.53;;;1.00;;
16514;SDS011;8370;52.556;7.970;2022-07-23T07:44:48;1.30;;;0.80;;
16514;SDS011;8370;52.556;7.970;2022-07-23T07:47:13;2.67;;;1.10;;
16514;SDS011;8370;52.556;7.970;2022-07-23T07:49:40;2.53;;;1.13;;
16514;SDS011;8370;52.556;7.970;2022-07-23T07:52:09;2.17;;;1.07;;
16514;SDS011;8370;52.556;7.970;2022-07-23T07:54:35;2.37;;;1.00;;
16514;SDS011;8370;52.556;7.970;2022-07-23T07:57:00;2.13;;;1.00;;
16514;SDS011;8370;52.556;7.970;2022-07-23T07:59:26;4.37;;;1.00;;
16514;SDS011;8370;52.556;7.970;2022-07-23T08:01:52;3.57;;;0.80;;
16514;SDS011;8370;52.556;7.970;2022-07-23T08:04:17;1.30;;;0.70;;
16514;SDS011;8370;52.556;7.970;2022-07-23T08:06:43;1.30;;;1.20;;
16514;SDS011;8370;52.556;7.970;2022-07-23T08:09:08;2.40;;;1.10;;
16514;SDS011;8370;52.556;7.970;2022-07-23T08:11:34;1.80;;;1.10;;
16514;SDS011;8370;52.556;7.970;2022-07-23T08:14:00;2.80;;;1.15;;
16514;SDS011;8370;52.556;7.970;2022-07-23T08:16:26;3.80;;;1.30;;
16514;SDS011;8370;52.556;7.970;2022-07-23T08:18:51;2.65;;;1.08;;
16514;SDS011;8370;52.556;7.970;2022-07-23T08:21:17;1.75;;;0.90;;
16514;SDS011;8370;52.556;7.970;2022-07-23T08:23:42;2.70;;;0.95;;
16514;SDS011;8370;52.556;7.970;2022-07-23T08:26:08;1.98;;;0.70;;
16514;SDS011;8370;52.556;7.970;2022-07-23T08:28:33;2.08;;;0.90;;
16514;SDS011;8370;52.556;7.970;2022-07-23T08:30:59;1.77;;;1.05;;
16514;SDS011;8370;52.556;7.970;2022-07-23T08:33:25;1.60;;;0.93;;
16514;SDS011;8370;52.556;7.970;2022-07-23T08:35:51;2.38;;;0.80;;
16514;SDS011;8370;52.556;7.970;2022-07-23T08:38:19;2.63;;;1.00;;
16514;SDS011;8370;52.556;7.970;2022-07-23T08:40:50;1.30;;;0.88;;
16514;SDS011;8370;52.556;7.970;2022-07-23T08:43:18;2.15;;;1.08;;
16514;SDS011;8370;52.556;7.970;2022-07-23T08:45:49;2.25;;;0.93;;
16514;SDS011;8370;52.556;7.970;2022-07-23T08:48:17;2.88;;;0.75;;
16514;SDS011;8370;52.556;7.970;2022-07-23T08:50:51;2.03;;;0.70;;
16514;SDS011;8370;52.556;7.970;2022-07-23T08:53:19;2.33;;;0.82;;
16514;SDS011;8370;52.556;7.970;2022-07-23T08:55:45;0.75;;;0.70;;
16514;SDS011;8370;52.556;7.970;2022-07-23T08:58:15;1.58;;;0.90;;
16514;SDS011;8370;52.556;7.970;2022-07-23T09:00:42;3.08;;;1.05;;
16514;SDS011;8370;52.556;7.970;2022-07-23T09:03:13;1.80;;;1.00;;
16514;SDS011;8370;52.556;7.970;2022-07-23T09:05:42;3.35;;;0.88;;
16514;SDS011;8370;52.556;7.970;2022-07-23T09:08:14;2.60;;;0.75;;
16514;SDS011;8370;52.556;7.970;2022-07-23T09:10:52;0.90;;;0.70;;
16514;SDS011;8370;52.556;7.970;2022-07-23T09:16:08;2.75;;;0.93;;
16514;SDS011;8370;52.556;7.970;2022-07-23T09:21:16;2.05;;;0.85;;
16514;SDS011;8370;52.556;7.970;2022-07-23T09:24:03;1.60;;;0.77;;
16514;SDS011;8370;52.556;7.970;2022-07-23T09:34:29;1.13;;;0.95;;
16514;SDS011;8370;52.556;7.970;2022-07-23T09:36:56;2.60;;;0.80;;
16514;SDS011;8370;52.556;7.970;2022-07-23T09:39:33;1.27;;;0.70;;
16514;SDS011;8370;52.556;7.970;2022-07-23T09:42:12;1.60;;;0.70;;
16514;SDS011;8370;52.556;7.970;2022-07-23T09:44:41;1.08;;;0.80;;
16514;SDS011;8370;52.556;7.970;2022-07-23T09:47:15;1.48;;;0.77;;
16514;SDS011;8370;52.556;7.970;2022-07-23T09:49:57;3.25;;;1.25;;
16514;SDS011;8370;52.556;7.970;2022-07-23T09:52:47;2.15;;;0.80;;
16514;SDS011;8370;52.556;7.970;2022-07-23T09:55:14;1.52;;;0.80;;
16514;SDS011;8370;52.556;7.970;2022-07-23T09:57:41;0.65;;;0.60;;
16514;SDS011;8370;52.556;7.970;2022-07-23T10:00:09;1.92;;;0.60;;
16514;SDS011;8370;52.556;7.970;2022-07-23T10:02:35;0.98;;;0.70;;
16514;SDS011;8370;52.556;7.970;2022-07-23T10:05:02;0.60;;;0.60;;
16514;SDS011;8370;52.556;7.970;2022-07-23T10:07:28;0.80;;;0.80;;
16514;SDS011;8370;52.556;7.970;2022-07-23T10:09:58;1.38;;;0.80;;
16514;SDS011;8370;52.556;7.970;2022-07-23T10:12:25;1.50;;;0.68;;
16514;SDS011;8370;52.556;7.970;2022-07-23T10:15:10;3.13;;;0.70;;
16514;SDS011;8370;52.556;7.970;2022-07-23T10:17:36;2.30;;;0.70;;
16514;SDS011;8370;52.556;7.970;2022-07-23T10:20:02;4.75;;;0.90;;
16514;SDS011;8370;52.556;7.970;2022-07-23T10:22:37;2.05;;;0.60;;
16514;SDS011;8370;52.556;7.970;2022-07-23T10:25:09;0.80;;;0.50;;
16514;SDS011;8370;52.556;7.970;2022-07-23T10:27:58;1.00;;;0.70;;
16514;SDS011;8370;52.556;7.970;2022-07-23T10:30:45;2.92;;;0.70;;
16514;SDS011;8370;52.556;7.970;2022-07-23T10:36:09;3.25;;;0.75;;
16514;SDS011;8370;52.556;7.970;2022-07-23T10:38:53;2.08;;;0.82;;
16514;SDS011;8370;52.556;7.970;2022-07-23T10:41:36;0.90;;;0.60;;
16514;SDS011;8370;52.556;7.970;2022-07-23T10:44:10;0.70;;;0.70;;
16514;SDS011;8370;52.556;7.970;2022-07-23T10:46:53;1.48;;;0.80;;
16514;SDS011;8370;52.556;7.970;2022-07-23T10:49:38;0.80;;;0.60;;
16514;SDS011;8370;52.556;7.970;2022-07-23T10:54:50;2.58;;;0.80;;
16514;SDS011;8370;52.556;7.970;2022-07-23T10:57:24;1.50;;;0.70;;
16514;SDS011;8370;52.556;7.970;2022-07-23T11:02:29;2.88;;;0.80;;
16514;SDS011;8370;52.556;7.970;2022-07-23T11:04:59;1.45;;;0.80;;
16514;SDS011;8370;52.556;7.970;2022-07-23T11:07:27;1.98;;;0.60;;
16514;SDS011;8370;52.556;7.970;2022-07-23T11:09:53;0.60;;;0.60;;
16514;SDS011;8370;52.556;7.970;2022-07-23T11:17:26;0.80;;;0.70;;
16514;SDS011;8370;52.556;7.970;2022-07-23T11:25:07;0.50;;;0.50;;
16514;SDS011;8370;52.556;7.970;2022-07-23T11:27:40;1.15;;;0.60;;
16514;SDS011;8370;52.556;7.970;2022-07-23T11:30:07;1.05;;;0.60;;
16514;SDS011;8370;52.556;7.970;2022-07-23T11:32:35;2.47;;;0.60;;
16514;SDS011;8370;52.556;7.970;2022-07-23T11:35:18;1.77;;;0.65;;
16514;SDS011;8370;52.556;7.970;2022-07-23T11:37:45;2.80;;;0.80;;
16514;SDS011;8370;52.556;7.970;2022-07-23T11:40:13;0.68;;;0.68;;
16514;SDS011;8370;52.556;7.970;2022-07-23T11:42:50;3.20;;;0.50;;
16514;SDS011;8370;52.556;7.970;2022-07-23T11:45:19;0.55;;;0.47;;
16514;SDS011;8370;52.556;7.970;2022-07-23T11:47:45;1.10;;;0.60;;
16514;SDS011;8370;52.556;7.970;2022-07-23T11:50:11;0.70;;;0.70;;
16514;SDS011;8370;52.556;7.970;2022-07-23T11:52:36;1.33;;;0.63;;
16514;SDS011;8370;52.556;7.970;2022-07-23T11:55:04;0.60;;;0.60;;
16514;SDS011;8370;52.556;7.970;2022-07-23T11:57:32;0.68;;;0.68;;
16514;SDS011;8370;52.556;7.970;2022-07-23T12:02:27;1.92;;;0.50;;
16514;SDS011;8370;52.556;7.970;2022-07-23T12:04:53;1.67;;;0.60;;
16514;SDS011;8370;52.556;7.970;2022-07-23T12:07:23;0.85;;;0.73;;
16514;SDS011;8370;52.556;7.970;2022-07-23T12:09:49;4.55;;;0.75;;
16514;SDS011;8370;52.556;7.970;2022-07-23T12:12:14;0.88;;;0.50;;
16514;SDS011;8370;52.556;7.970;2022-07-23T12:17:27;1.35;;;0.73;;
16514;SDS011;8370;52.556;7.970;2022-07-23T12:19:54;0.60;;;0.40;;
16514;SDS011;8370;52.556;7.970;2022-07-23T12:22:22;1.02;;;0.85;;
16514;SDS011;8370;52.556;7.970;2022-07-23T12:25:00;2.35;;;0.40;;
16514;SDS011;8370;52.556;7.970;2022-07-23T12:27:29;1.25;;;0.50;;
16514;SDS011;8370;52.556;7.970;2022-07-23T12:29:55;2.08;;;0.52;;
16514;SDS011;8370;52.556;7.970;2022-07-23T12:35:03;1.48;;;0.50;;
16514;SDS011;8370;52.556;7.970;2022-07-23T12:37:33;1.20;;;0.65;;
16514;SDS011;8370;52.556;7.970;2022-07-23T12:42:54;1.75;;;0.50;;
16514;SDS011;8370;52.556;7.970;2022-07-23T12:45:24;1.75;;;0.50;;
16514;SDS011;8370;52.556;7.970;2022-07-23T12:48:02;0.73;;;0.50;;
16514;SDS011;8370;52.556;7.970;2022-07-23T12:53:13;2.05;;;0.73;;
16514;SDS011;8370;52.556;7.970;2022-07-23T12:55:41;0.40;;;0.40;;
16514;SDS011;8370;52.556;7.970;2022-07-23T12:58:08;2.33;;;0.40;;
16514;SDS011;8370;52.556;7.970;2022-07-23T13:00:55;2.58;;;0.85;;
16514;SDS011;8370;52.556;7.970;2022-07-23T13:05:52;1.20;;;0.60;;
16514;SDS011;8370;52.556;7.970;2022-07-23T13:08:18;1.05;;;0.50;;
16514;SDS011;8370;52.556;7.970;2022-07-23T13:10:44;1.23;;;0.50;;
16514;SDS011;8370;52.556;7.970;2022-07-23T13:13:13;0.60;;;0.60;;
16514;SDS011;8370;52.556;7.970;2022-07-23T13:15:38;0.82;;;0.50;;
16514;SDS011;8370;52.556;7.970;2022-07-23T13:18:04;0.88;;;0.50;;
16514;SDS011;8370;52.556;7.970;2022-07-23T13:20:30;1.52;;;1.00;;
16514;SDS011;8370;52.556;7.970;2022-07-23T13:22:57;1.30;;;0.68;;
16514;SDS011;8370;52.556;7.970;2022-07-23T13:25:23;1.60;;;0.50;;
16514;SDS011;8370;52.556;7.970;2022-07-23T13:27:48;1.35;;;0.50;;
16514;SDS011;8370;52.556;7.970;2022-07-23T13:30:14;0.98;;;0.50;;
16514;SDS011;8370;52.556;7.970;2022-07-23T13:32:40;0.43;;;0.43;;
16514;SDS011;8370;52.556;7.970;2022-07-23T13:35:05;0.98;;;0.57;;
16514;SDS011;8370;52.556;7.970;2022-07-23T13:37:31;1.77;;;0.60;;
16514;SDS011;8370;52.556;7.970;2022-07-23T13:39:57;0.82;;;0.57;;
16514;SDS011;8370;52.556;7.970;2022-07-23T13:42:22;0.82;;;0.47;;
16514;SDS011;8370;52.556;7.970;2022-07-23T13:44:48;1.08;;;0.60;;
16514;SDS011;8370;52.556;7.970;2022-07-23T13:47:13;2.15;;;0.73;;
16514;SDS011;8370;52.556;7.970;2022-07-23T13:49:39;0.68;;;0.50;;
16514;SDS011;8370;52.556;7.970;2022-07-23T13:52:04;0.63;;;0.40;;
16514;SDS011;8370;52.556;7.970;2022-07-23T13:54:30;0.93;;;0.63;;
16514;SDS011;8370;52.556;7.970;2022-07-23T13:56:55;1.33;;;0.60;;
16514;SDS011;8370;52.556;7.970;2022-07-23T13:59:21;0.95;;;0.60;;
16514;SDS011;8370;52.556;7.970;2022-07-23T14:01:47;1.17;;;0.52;;
16514;SDS011;8370;52.556;7.970;2022-07-23T14:04:12;1.00;;;0.60;;
16514;SDS011;8370;52.556;7.970;2022-07-23T14:06:38;1.23;;;0.60;;
16514;SDS011;8370;52.556;7.970;2022-07-23T14:09:03;2.10;;;0.60;;
16514;SDS011;8370;52.556;7.970;2022-07-23T14:11:29;1.42;;;0.52;;
16514;SDS011;8370;52.556;7.970;2022-07-23T14:13:55;3.22;;;0.80;;
16514;SDS011;8370;52.556;7.970;2022-07-23T14:16:21;0.77;;;0.52;;
16514;SDS011;8370;52.556;7.970;2022-07-23T14:18:47;0.57;;;0.57;;
16514;SDS011;8370;52.556;7.970;2022-07-23T14:21:13;1.08;;;0.75;;
16514;SDS011;8370;52.556;7.970;2022-07-23T14:23:39;0.63;;;0.52;;
16514;SDS011;8370;52.556;7.970;2022-07-23T14:26:04;0.90;;;0.60;;
16514;SDS011;8370;52.556;7.970;2022-07-23T14:28:32;0.63;;;0.63;;
16514;SDS011;8370;52.556;7.970;2022-07-23T14:30:58;0.73;;;0.70;;
16514;SDS011;8370;52.556;7.970;2022-07-23T14:33:23;0.85;;;0.55;;
16514;SDS011;8370;52.556;7.970;2022-07-23T14:35:49;0.93;;;0.70;;
16514;SDS011;8370;52.556;7.970;2022-07-23T14:38:14;0.68;;;0.68;;
16514;SDS011;8370;52.556;7.970;2022-07-23T14:40:40;2.72;;;0.68;;
16514;SDS011;8370;52.556;7.970;2022-07-23T14:43:06;0.70;;;0.70;;
16514;SDS011;8370;52.556;7.970;2022-07-23T14:45:31;2.33;;;0.95;;
16514;SDS011;8370;52.556;7.970;2022-07-23T14:47:57;1.42;;;0.98;;
16514;SDS011;8370;52.556;7.970;2022-07-23T14:50:23;0.70;;;0.70;;
16514;SDS011;8370;52.556;7.970;2022-07-23T14:52:49;0.90;;;0.80;;
16514;SDS011;8370;52.556;7.970;2022-07-23T14:55:14;0.80;;;0.50;;
16514;SDS011;8370;52.556;7.970;2022-07-23T14:57:42;0.63;;;0.63;;
16514;SDS011;8370;52.556;7.970;2022-07-23T15:00:08;1.40;;;0.50;;
16514;SDS011;8370;52.556;7.970;2022-07-23T15:02:34;2.03;;;0.75;;
16514;SDS011;8370;52.556;7.970;2022-07-23T15:04:59;3.47;;;0.68;;
16514;SDS011;8370;52.556;7.970;2022-07-23T15:07:28;0.60;;;0.60;;
16514;SDS011;8370;52.556;7.970;2022-07-23T15:09:55;1.63;;;0.90;;
16514;SDS011;8370;52.556;7.970;2022-07-23T15:12:21;0.80;;;0.60;;
16514;SDS011;8370;52.556;7.970;2022-07-23T15:14:47;3.00;;;0.90;;
16514;SDS011;8370;52.556;7.970;2022-07-23T15:17:12;1.85;;;0.68;;
16514;SDS011;8370;52.556;7.970;2022-07-23T15:19:38;1.30;;;0.77;;
16514;SDS011;8370;52.556;7.970;2022-07-23T15:22:03;2.15;;;0.88;;
16514;SDS011;8370;52.556;7.970;2022-07-23T15:24:29;1.00;;;0.80;;
16514;SDS011;8370;52.556;7.970;2022-07-23T15:26:55;2.00;;;0.80;;
16514;SDS011;8370;52.556;7.970;2022-07-23T15:29:23;1.17;;;0.80;;
16514;SDS011;8370;52.556;7.970;2022-07-23T15:31:48;2.17;;;0.95;;
16514;SDS011;8370;52.556;7.970;2022-07-23T15:34:14;2.20;;;0.90;;
16514;SDS011;8370;52.556;7.970;2022-07-23T15:36:39;0.95;;;0.93;;
16514;SDS011;8370;52.556;7.970;2022-07-23T15:39:05;0.85;;;0.85;;
16514;SDS011;8370;52.556;7.970;2022-07-23T15:41:31;1.58;;;1.10;;
16514;SDS011;8370;52.556;7.970;2022-07-23T15:43:57;2.72;;;1.40;;
16514;SDS011;8370;52.556;7.970;2022-07-23T15:46:23;1.83;;;0.90;;